Time;durP1;ratioP1;P1;durP2;ratioP2;P2;SDS_P1;SDS_P2;PMS_P1;PMS_P2;Temp;Humidity;BMP_temperature;BMP_pressure;BME280_temperature;BME280_humidity;BME280_pressure;Samples;Min_cycle;Max_cycle;Signal;HPM_P1;HPM_P2
2023/08/17 00:00:14;;;;;;;8.32;5.28;;;;;;;-145.33;100.00;60416.63;4969505;28;20023;-24
2023/08/17 00:02:40;;;;;;;8.25;4.95;;;;;;;-145.33;100.00;60416.63;4969447;28;20054;-23
2023/08/17 00:05:07;;;;;;;12.63;4.80;;;;;;;-145.33;100.00;60416.63;4969750;28;20026;-23
2023/08/17 00:07:33;;;;;;;8.90;4.43;;;;;;;-145.33;100.00;60416.63;4969121;28;20054;-23
2023/08/17 00:09:59;;;;;;;7.57;4.47;;;;;;;-145.33;100.00;60416.63;4969504;28;20027;-24
2023/08/17 00:12:27;;;;;;;9.07;3.95;;;;;;;-145.33;100.00;60416.63;4969186;28;20031;-23
2023/08/17 00:14:53;;;;;;;7.88;4.50;;;;;;;-145.33;100.00;60416.63;4969803;28;20038;-25
2023/08/17 00:17:19;;;;;;;10.15;4.32;;;;;;;-145.33;100.00;60416.63;4969138;28;20107;-23
2023/08/17 00:19:45;;;;;;;9.30;4.32;;;;;;;-145.33;100.00;60416.63;4969034;28;20054;-23
2023/08/17 00:22:10;;;;;;;11.63;4.95;;;;;;;-145.33;100.00;60416.63;4969124;28;20114;-23
2023/08/17 00:24:35;;;;;;;6.57;4.07;;;;;;;-145.33;100.00;60416.63;4968829;28;20082;-22
2023/08/17 00:27:01;;;;;;;7.70;4.63;;;;;;;-145.33;100.00;60416.63;4969003;28;20022;-23
2023/08/17 00:29:26;;;;;;;8.00;4.32;;;;;;;-145.33;100.00;60416.63;4969334;28;20150;-24
2023/08/17 00:31:52;;;;;;;7.40;4.45;;;;;;;-145.33;100.00;60416.63;4969229;28;20076;-24
2023/08/17 00:34:18;;;;;;;10.63;4.07;;;;;;;-145.33;100.00;60416.63;4969037;28;20039;-24
2023/08/17 00:36:44;;;;;;;7.25;4.35;;;;;;;-145.33;100.00;60416.63;4968682;28;20023;-23
2023/08/17 00:39:09;;;;;;;8.18;4.60;;;;;;;-145.33;100.00;60416.63;4968951;28;20081;-23
2023/08/17 00:41:35;;;;;;;10.05;5.20;;;;;;;-145.33;100.00;60416.63;4969156;28;20082;-23
2023/08/17 00:44:00;;;;;;;11.27;5.70;;;;;;;-145.33;100.00;60416.63;4968834;28;20027;-23
2023/08/17 00:46:27;;;;;;;11.77;7.50;;;;;;;-145.33;100.00;60416.63;4968462;28;20030;-23
2023/08/17 00:48:54;;;;;;;13.43;7.30;;;;;;;-145.33;100.00;60416.63;4969064;28;20042;-23
2023/08/17 00:51:23;;;;;;;13.43;7.82;;;;;;;-145.33;100.00;60416.63;4968588;28;20434;-24
2023/08/17 00:53:50;;;;;;;12.38;6.93;;;;;;;-145.33;100.00;60416.63;4968943;28;20118;-24
2023/08/17 00:56:15;;;;;;;10.93;6.40;;;;;;;-145.33;100.00;60416.63;4968003;28;20498;-23
2023/08/17 00:58:45;;;;;;;11.25;5.80;;;;;;;-145.33;100.00;60416.63;4968624;28;20300;-23
2023/08/17 01:01:10;;;;;;;10.77;6.35;;;;;;;-145.33;100.00;60416.63;4968505;28;20109;-23
2023/08/17 01:03:36;;;;;;;11.23;5.63;;;;;;;-145.33;100.00;60416.63;4968540;28;20122;-23
2023/08/17 01:06:02;;;;;;;11.40;6.35;;;;;;;-145.33;100.00;60416.63;4968375;28;20713;-25
2023/08/17 01:08:29;;;;;;;10.77;5.40;;;;;;;-145.33;100.00;60416.63;4967555;28;20046;-23
2023/08/17 01:11:26;;;;;;;13.10;5.80;;;;;;;-145.33;100.00;60416.63;4968545;28;20121;-29
2023/08/17 01:14:18;;;;;;;9.70;5.53;;;;;;;-145.33;100.00;60416.63;4968072;28;20510;-24
2023/08/17 01:17:06;;;;;;;9.18;5.40;;;;;;;-145.33;100.00;60416.63;4967850;28;20038;-23
2023/08/17 01:19:33;;;;;;;9.55;5.57;;;;;;;-145.33;100.00;60416.63;4967852;28;20027;-23
2023/08/17 01:22:08;;;;;;;10.32;5.70;;;;;;;-145.33;100.00;60416.63;4967852;28;20054;-24
2023/08/17 01:24:33;;;;;;;10.25;5.95;;;;;;;-145.33;100.00;60416.63;4968154;28;20506;-23
2023/08/17 01:26:59;;;;;;;9.15;5.78;;;;;;;-145.33;100.00;60416.63;4967781;28;20031;-23
2023/08/17 01:29:25;;;;;;;9.27;5.68;;;;;;;-145.33;100.00;60416.63;4968465;28;20029;-25
2023/08/17 01:31:56;;;;;;;7.75;5.65;;;;;;;-145.33;100.00;60416.63;4968192;28;20042;-25
2023/08/17 01:34:25;;;;;;;10.90;5.82;;;;;;;-145.33;100.00;60416.63;4967987;28;20031;-25
2023/08/17 01:36:57;;;;;;;9.65;5.82;;;;;;;-145.33;100.00;60416.63;4967583;28;20109;-23
2023/08/17 01:39:29;;;;;;;9.38;5.38;;;;;;;-145.33;100.00;60416.63;4967817;28;20463;-23
2023/08/17 01:42:00;;;;;;;8.30;5.63;;;;;;;-145.33;100.00;60416.63;4967752;28;20045;-30
2023/08/17 01:44:27;;;;;;;11.00;5.95;;;;;;;-145.33;100.00;60416.63;4967760;28;20093;-30
2023/08/17 01:46:53;;;;;;;;;;;;;;;-145.33;100.00;60416.63;4968169;28;20069;-23
2023/08/17 01:49:18;;;;;;;11.18;5.45;;;;;;;-145.33;100.00;60416.63;4967801;28;19918;-23
2023/08/17 01:51:44;;;;;;;9.18;5.82;;;;;;;-145.33;100.00;60416.63;4967461;28;20058;-23
2023/08/17 01:54:09;;;;;;;9.52;5.50;;;;;;;-145.33;100.00;60416.63;4967644;28;20037;-24
2023/08/17 01:56:37;;;;;;;9.50;5.88;;;;;;;-145.33;100.00;60416.63;4967543;28;20149;-23
2023/08/17 01:59:02;;;;;;;9.32;6.00;;;;;;;-145.33;100.00;60416.63;4966991;28;20034;-25
2023/08/17 02:01:28;;;;;;;13.10;5.85;;;;;;;-145.33;100.00;60416.63;4967738;28;20030;-23
2023/08/17 02:03:56;;;;;;;7.95;5.88;;;;;;;-145.33;100.00;60416.63;4967179;28;20478;-23
2023/08/17 02:06:21;;;;;;;;;;;;;;;-145.33;100.00;60416.63;4967614;28;20429;-23
2023/08/17 02:08:46;;;;;;;13.00;7.55;;;;;;;-145.33;100.00;60416.63;4966981;28;19926;-23
2023/08/17 02:11:12;;;;;;;9.55;6.90;;;;;;;-145.33;100.00;60416.63;4967083;28;20030;-23
2023/08/17 02:13:39;;;;;;;10.80;6.82;;;;;;;-145.33;100.00;60416.63;4967066;28;20084;-25
2023/08/17 02:16:05;;;;;;;11.82;7.40;;;;;;;-145.33;100.00;60416.63;4966837;28;20081;-23
2023/08/17 02:18:32;;;;;;;9.80;7.25;;;;;;;-145.33;100.00;60416.63;4966828;28;20417;-23
2023/08/17 02:20:58;;;;;;;9.77;6.53;;;;;;;-145.33;100.00;60416.63;4966977;28;20027;-24
2023/08/17 02:23:24;;;;;;;10.52;6.22;;;;;;;-145.33;100.00;60416.63;4967125;28;20482;-23
2023/08/17 02:25:49;;;;;;;10.77;5.97;;;;;;;-145.33;100.00;60416.63;4966986;28;20034;-23
2023/08/17 02:28:14;;;;;;;8.38;5.72;;;;;;;-145.33;100.00;60416.63;4966784;28;20038;-23
2023/08/17 02:30:40;;;;;;;9.77;6.13;;;;;;;-145.33;100.00;60416.63;4966910;28;20085;-23
2023/08/17 02:33:08;;;;;;;11.23;7.03;;;;;;;-145.33;100.00;60416.63;4967111;28;20034;-23
2023/08/17 02:35:33;;;;;;;11.20;6.22;;;;;;;-145.33;100.00;60416.63;4966999;28;20098;-23
2023/08/17 02:37:59;;;;;;;10.25;6.38;;;;;;;-145.33;100.00;60416.63;4966993;28;20479;-23
2023/08/17 02:40:24;;;;;;;14.10;6.80;;;;;;;-145.33;100.00;60416.63;4967148;28;20019;-23
2023/08/17 02:42:49;;;;;;;9.48;7.15;;;;;;;-145.33;100.00;60416.63;4966667;28;20031;-24
2023/08/17 02:45:15;;;;;;;10.85;6.72;;;;;;;-145.33;100.00;60416.63;4966926;28;20877;-25
2023/08/17 02:47:40;;;;;;;12.80;7.88;;;;;;;-145.33;100.00;60416.63;4968748;28;20764;-23
2023/08/17 02:50:06;;;;;;;9.68;7.03;;;;;;;-145.33;100.00;60416.63;4971203;28;20505;-23
2023/08/17 02:52:32;;;;;;;11.88;7.40;;;;;;;-145.33;100.00;60416.63;4971009;28;20023;-23
2023/08/17 02:54:57;;;;;;;11.05;6.72;;;;;;;-145.33;100.00;60416.63;4970650;28;20018;-23
2023/08/17 02:57:25;;;;;;;12.63;7.00;;;;;;;-145.33;100.00;60416.63;4971260;28;20414;-23
2023/08/17 02:59:50;;;;;;;11.70;6.80;;;;;;;-145.33;100.00;60416.63;4970384;28;20029;-23
2023/08/17 03:02:15;;;;;;;20.05;11.80;;;;;;;-145.33;100.00;60416.63;4970766;28;20117;-24
2023/08/17 03:04:41;;;;;;;19.55;11.98;;;;;;;-145.33;100.00;60416.63;4970403;28;20540;-25
2023/08/17 03:07:07;;;;;;;26.55;14.13;;;;;;;-145.33;100.00;60416.63;4970430;28;20086;-24
2023/08/17 03:09:32;;;;;;;31.10;16.42;;;;;;;-145.33;100.00;60416.63;4970168;28;20137;-23
2023/08/17 03:11:58;;;;;;;23.50;14.25;;;;;;;-145.33;100.00;60416.63;4970481;28;20472;-23
2023/08/17 03:14:23;;;;;;;17.00;10.85;;;;;;;-145.33;100.00;60416.63;4970524;28;20034;-23
2023/08/17 03:16:49;;;;;;;17.65;10.23;;;;;;;-145.33;100.00;60416.63;4970272;28;20023;-23
2023/08/17 03:19:14;;;;;;;18.42;9.13;;;;;;;-145.33;100.00;60416.63;4969997;28;20433;-23
2023/08/17 03:21:40;;;;;;;17.38;9.48;;;;;;;-145.33;100.00;60416.63;4970472;28;20492;-22
2023/08/17 03:24:06;;;;;;;14.63;8.75;;;;;;;-145.33;100.00;60416.63;4970353;28;20081;-23
2023/08/17 03:26:31;;;;;;;19.17;10.43;;;;;;;-145.33;100.00;60416.63;4969798;28;20695;-23
2023/08/17 03:28:56;;;;;;;25.50;15.18;;;;;;;-145.33;100.00;60416.63;4970112;28;20108;-24
2023/08/17 03:31:22;;;;;;;36.75;19.38;;;;;;;-145.33;100.00;60416.63;4969990;28;20454;-23
2023/08/17 03:33:48;;;;;;;22.45;13.85;;;;;;;-145.33;100.00;60416.63;4970512;28;20122;-23
2023/08/17 03:36:13;;;;;;;15.02;9.80;;;;;;;-145.33;100.00;60416.63;4969977;28;20477;-23
2023/08/17 03:38:39;;;;;;;15.52;9.40;;;;;;;-145.33;100.00;60416.63;4968463;28;20031;-24
2023/08/17 03:41:07;;;;;;;13.05;8.15;;;;;;;-145.33;100.00;60416.63;4970074;28;20573;-23
2023/08/17 03:43:33;;;;;;;10.63;7.57;;;;;;;-145.33;100.00;60416.63;4969566;28;20030;-23
2023/08/17 03:45:59;;;;;;;10.48;7.63;;;;;;;-145.33;100.00;60416.63;4970101;28;20058;-24
2023/08/17 03:48:24;;;;;;;13.23;8.68;;;;;;;-145.33;100.00;60416.63;4969713;28;20019;-23
2023/08/17 03:50:54;;;;;;;14.95;9.18;;;;;;;-145.33;100.00;60416.63;4969847;28;20019;-24
2023/08/17 03:53:19;;;;;;;24.30;12.77;;;;;;;-145.33;100.00;60416.63;4969671;28;20061;-23
2023/08/17 03:55:51;;;;;;;30.38;14.90;;;;;;;-145.33;100.00;60416.63;4969570;28;20518;-25
2023/08/17 03:58:21;;;;;;;25.15;14.80;;;;;;;-145.33;100.00;60416.63;4969326;28;20035;-25
2023/08/17 04:00:50;;;;;;;23.27;12.90;;;;;;;-145.33;100.00;60416.63;4968438;28;20457;-23
2023/08/17 04:03:16;;;;;;;18.95;10.57;;;;;;;-145.33;100.00;60416.63;4969225;28;20031;-24
2023/08/17 04:05:41;;;;;;;14.98;8.85;;;;;;;-145.33;100.00;60416.63;4969385;28;20082;-26
2023/08/17 04:08:07;;;;;;;15.18;9.35;;;;;;;-145.33;100.00;60416.63;4968752;28;20461;-23
2023/08/17 04:10:32;;;;;;;13.60;8.07;;;;;;;-145.33;100.00;60416.63;4969121;28;20434;-23
2023/08/17 04:12:58;;;;;;;16.13;8.63;;;;;;;-145.33;100.00;60416.63;4968982;28;20037;-31
2023/08/17 04:15:23;;;;;;;12.50;8.57;;;;;;;-145.33;100.00;60416.63;4969161;28;20031;-25
2023/08/17 04:17:49;;;;;;;14.63;8.90;;;;;;;-145.33;100.00;60416.63;4969338;28;20106;-26
2023/08/17 04:20:14;;;;;;;13.48;7.88;;;;;;;-145.33;100.00;60416.63;4968518;28;20462;-24
2023/08/17 04:22:39;;;;;;;11.90;8.25;;;;;;;-145.33;100.00;60416.63;4969253;28;20038;-23
2023/08/17 04:25:05;;;;;;;15.48;9.20;;;;;;;-145.33;100.00;60416.63;4968896;28;20116;-24
2023/08/17 04:27:31;;;;;;;18.40;11.27;;;;;;;-145.33;100.00;60416.63;4968736;28;20125;-23
2023/08/17 04:29:57;;;;;;;21.42;11.43;;;;;;;-145.33;100.00;60416.63;4969171;28;20537;-23
2023/08/17 04:32:22;;;;;;;19.60;11.90;;;;;;;-145.33;100.00;60416.63;4968758;28;20031;-23
2023/08/17 04:34:48;;;;;;;25.55;12.43;;;;;;;-145.33;100.00;60416.63;4969084;28;20039;-25
2023/08/17 04:37:16;;;;;;;18.80;9.60;;;;;;;-145.33;100.00;60416.63;4968527;28;20031;-23
2023/08/17 04:39:43;;;;;;;;;;;;;;;-145.33;100.00;60416.63;4969486;28;20019;-24
2023/08/17 04:42:09;;;;;;;16.13;9.13;;;;;;;-145.33;100.00;60416.63;4968838;28;19914;-23
2023/08/17 04:44:35;;;;;;;19.63;10.48;;;;;;;-145.33;100.00;60416.63;4968791;28;20047;-24
2023/08/17 04:47:00;;;;;;;12.50;7.97;;;;;;;-145.33;100.00;60416.63;4968717;28;20093;-24
2023/08/17 04:49:26;;;;;;;14.80;8.18;;;;;;;-145.33;100.00;60416.63;4967353;28;20041;-25
2023/08/17 04:51:52;;;;;;;10.90;7.88;;;;;;;-145.33;100.00;60416.63;4968787;28;20506;-23
2023/08/17 04:54:17;;;;;;;15.38;7.97;;;;;;;-145.33;100.00;60416.63;4968544;28;20134;-23
2023/08/17 04:56:43;;;;;;;11.23;7.55;;;;;;;-145.33;100.00;60416.63;4968195;28;20113;-26
2023/08/17 04:59:08;;;;;;;14.65;7.22;;;;;;;-145.33;100.00;60416.63;4968654;28;20118;-24
2023/08/17 05:01:35;;;;;;;11.88;7.00;;;;;;;-145.33;100.00;60416.63;4968536;28;20038;-23
2023/08/17 05:04:01;;;;;;;13.50;7.82;;;;;;;-145.33;100.00;60416.63;4968099;28;20418;-25
2023/08/17 05:06:28;;;;;;;11.05;7.57;;;;;;;-145.33;100.00;60416.63;4968106;28;20054;-23
2023/08/17 05:08:53;;;;;;;14.80;7.68;;;;;;;-145.33;100.00;60416.63;4968236;28;20482;-23
2023/08/17 05:11:19;;;;;;;14.70;8.05;;;;;;;-145.33;100.00;60416.63;4967516;28;20037;-23
2023/08/17 05:13:44;;;;;;;13.75;8.50;;;;;;;-145.33;100.00;60416.63;4968239;28;20482;-23
2023/08/17 05:16:10;;;;;;;13.07;7.95;;;;;;;-145.33;100.00;60416.63;4968025;28;20025;-24
2023/08/17 05:18:35;;;;;;;14.43;8.63;;;;;;;-145.33;100.00;60416.63;4968014;28;20534;-26
2023/08/17 05:21:01;;;;;;;17.83;9.50;;;;;;;-145.33;100.00;60416.63;4968221;28;20038;-23
2023/08/17 05:23:26;;;;;;;18.67;10.60;;;;;;;-145.33;100.00;60416.63;4968439;28;20051;-24
2023/08/17 05:25:54;;;;;;;13.88;8.57;;;;;;;-145.33;100.00;60416.63;4967970;28;20532;-23
2023/08/17 05:28:22;;;;;;;14.25;9.13;;;;;;;-145.33;100.00;60416.63;4968008;28;20485;-23
2023/08/17 05:30:49;;;;;;;14.55;9.20;;;;;;;-145.33;100.00;60416.63;4968030;28;20487;-27
2023/08/17 05:33:14;;;;;;;13.88;8.88;;;;;;;-145.33;100.00;60416.63;4967860;28;20034;-24
2023/08/17 05:35:39;;;;;;;14.73;7.63;;;;;;;-145.33;100.00;60416.63;4967626;28;20086;-23
2023/08/17 05:38:05;;;;;;;13.10;7.68;;;;;;;-145.33;100.00;60416.63;4967973;28;20030;-23
2023/08/17 05:40:32;;;;;;;11.90;6.90;;;;;;;-145.33;100.00;60416.63;4967509;28;20085;-23
2023/08/17 05:42:57;;;;;;;11.18;6.50;;;;;;;-145.33;100.00;60416.63;4967874;28;20030;-23
2023/08/17 05:45:22;;;;;;;13.10;6.55;;;;;;;-145.33;100.00;60416.63;4967843;28;20015;-23
2023/08/17 05:47:48;;;;;;;10.38;5.78;;;;;;;-145.33;100.00;60416.63;4967544;28;20036;-23
2023/08/17 05:50:13;;;;;;;10.38;6.60;;;;;;;-145.33;100.00;60416.63;4967875;28;20022;-23
2023/08/17 05:52:40;;;;;;;9.35;5.60;;;;;;;-145.33;100.00;60416.63;4967292;28;20038;-23
2023/08/17 05:55:06;;;;;;;9.10;5.53;;;;;;;-145.33;100.00;60416.63;4967658;28;20069;-23
2023/08/17 05:57:32;;;;;;;10.43;6.32;;;;;;;-145.33;100.00;60416.63;4967310;28;20061;-23
2023/08/17 05:59:59;;;;;;;13.52;6.30;;;;;;;-145.33;100.00;60416.63;4967713;28;20035;-23
2023/08/17 06:02:25;;;;;;;;;;;;;;;-145.33;100.00;60416.63;4967774;28;20589;-23
2023/08/17 06:04:50;;;;;;;10.90;6.82;;;;;;;-145.33;100.00;60416.63;4966814;28;19941;-23
2023/08/17 06:07:16;;;;;;;9.48;5.60;;;;;;;-145.33;100.00;60416.63;4967284;28;20415;-25
2023/08/17 06:09:41;;;;;;;9.80;5.80;;;;;;;-145.33;100.00;60416.63;4966970;28;20085;-23
2023/08/17 06:12:07;;;;;;;10.55;5.78;;;;;;;-145.33;100.00;60416.63;4967239;28;20027;-23
2023/08/17 06:14:34;;;;;;;9.88;6.00;;;;;;;-145.33;100.00;60416.63;4967024;28;20029;-23
2023/08/17 06:16:59;;;;;;;13.48;6.55;;;;;;;-145.33;100.00;60416.63;4967284;28;20489;-23
2023/08/17 06:19:25;;;;;;;10.65;6.00;;;;;;;-145.33;100.00;60416.63;4967211;28;20048;-23
2023/08/17 06:21:50;;;;;;;10.77;5.75;;;;;;;-145.33;100.00;60416.63;4966707;28;20034;-23
2023/08/17 06:24:16;;;;;;;11.55;6.20;;;;;;;-145.33;100.00;60416.63;4966841;28;20691;-25
2023/08/17 06:26:44;;;;;;;9.48;5.95;;;;;;;-145.33;100.00;60416.63;4967297;28;20031;-23
2023/08/17 06:29:09;;;;;;;12.82;5.50;;;;;;;-145.33;100.00;60416.63;4967234;28;20069;-23
2023/08/17 06:31:35;;;;;;;9.55;5.30;;;;;;;-145.33;100.00;60416.63;4966940;28;20070;-24
2023/08/17 06:34:00;;;;;;;13.35;5.13;;;;;;;-145.33;100.00;60416.63;4967070;28;20034;-28
2023/08/17 06:36:26;;;;;;;10.63;5.05;;;;;;;-145.33;100.00;60416.63;4966835;28;20038;-23
2023/08/17 06:38:51;;;;;;;13.88;4.90;;;;;;;-145.33;100.00;60416.63;4966946;28;20049;-29
2023/08/17 06:41:17;;;;;;;8.90;4.88;;;;;;;-145.33;100.00;60416.63;4966938;28;20030;-26
2023/08/17 06:43:42;;;;;;;12.82;4.70;;;;;;;-145.33;100.00;60416.63;4966795;28;20038;-23
2023/08/17 06:46:08;;;;;;;9.00;4.47;;;;;;;-145.33;100.00;60416.63;4966793;28;20026;-23
2023/08/17 06:48:33;;;;;;;10.27;4.75;;;;;;;-145.33;100.00;60416.63;4966591;28;20031;-23
2023/08/17 06:50:58;;;;;;;12.98;5.30;;;;;;;-145.33;100.00;60416.63;4967030;28;20515;-23
2023/08/17 06:53:24;;;;;;;12.05;5.30;;;;;;;-145.33;100.00;60416.63;4966786;28;20116;-23
2023/08/17 06:55:49;;;;;;;11.77;5.30;;;;;;;-145.33;100.00;60416.63;4966469;28;20145;-23
2023/08/17 06:58:17;;;;;;;8.48;5.00;;;;;;;-145.33;100.00;60416.63;4966654;28;20026;-23
2023/08/17 07:00:43;;;;;;;;;;;;;;;-145.33;100.00;60416.63;4967182;28;20031;-23
2023/08/17 07:03:09;;;;;;;7.80;4.53;;;;;;;-145.33;100.00;60416.63;4966909;28;19913;-23
2023/08/17 07:05:34;;;;;;;8.23;4.40;;;;;;;-145.33;100.00;60416.63;4966123;28;20027;-25
2023/08/17 07:08:00;;;;;;;8.40;4.97;;;;;;;-145.33;100.00;60416.63;4966752;28;20050;-25
2023/08/17 07:10:26;;;;;;;10.60;4.88;;;;;;;-145.33;100.00;60416.63;4966955;28;20023;-23
2023/08/17 07:12:52;;;;;;;7.97;4.18;;;;;;;-145.33;100.00;60416.63;4966720;28;20039;-23
2023/08/17 07:15:18;;;;;;;10.52;4.50;;;;;;;-145.33;100.00;60416.63;4966026;28;20039;-23
2023/08/17 07:17:43;;;;;;;7.25;4.13;;;;;;;-145.33;100.00;60416.63;4966680;28;20038;-23
2023/08/17 07:20:11;;;;;;;7.75;3.85;;;;;;;-145.33;100.00;60416.63;4966368;28;20027;-22
2023/08/17 07:22:36;;;;;;;9.18;3.90;;;;;;;-145.33;100.00;60416.63;4966851;28;20077;-23
2023/08/17 07:25:03;;;;;;;7.35;3.78;;;;;;;-145.33;100.00;60416.63;4966201;28;20042;-24
2023/08/17 07:27:29;;;;;;;7.93;4.03;;;;;;;-145.33;100.00;60416.63;4966670;28;20504;-23
2023/08/17 07:29:56;;;;;;;8.43;4.30;;;;;;;-145.33;100.00;60416.63;4966563;28;20026;-24
2023/08/17 07:32:21;;;;;;;;;;;;;;;-145.33;100.00;60416.63;4966871;28;20060;-23
2023/08/17 07:34:47;;;;;;;10.25;4.53;;;;;;;-145.33;100.00;60416.63;4968541;28;20348;-25
2023/08/17 07:37:13;;;;;;;8.50;4.10;;;;;;;-145.33;100.00;60416.63;4969845;28;20700;-24
2023/08/17 07:39:38;;;;;;;7.57;4.38;;;;;;;-145.33;100.00;60416.63;4969926;28;20038;-26
2023/08/17 07:42:04;;;;;;;8.65;4.28;;;;;;;-145.33;100.00;60416.63;4970198;28;20121;-24
2023/08/17 07:44:31;;;;;;;6.90;3.83;;;;;;;-145.33;100.00;60416.63;4969981;28;20406;-28
2023/08/17 07:46:57;;;;;;;9.75;4.30;;;;;;;-145.33;100.00;60416.63;4970268;28;20117;-23
2023/08/17 07:49:24;;;;;;;7.25;3.95;;;;;;;-145.33;100.00;60416.63;4969891;28;20105;-25
2023/08/17 07:51:49;;;;;;;7.07;3.50;;;;;;;-145.33;100.00;60416.63;4969726;28;20073;-23
2023/08/17 07:54:15;;;;;;;10.15;3.50;;;;;;;-145.33;100.00;60416.63;4969427;28;20111;-24
2023/08/17 07:56:40;;;;;;;6.13;3.67;;;;;;;-145.33;100.00;60416.63;4969613;28;20115;-23
2023/08/17 07:59:05;;;;;;;9.50;4.22;;;;;;;-145.33;100.00;60416.63;4969689;28;20070;-24
2023/08/17 08:01:31;;;;;;;12.63;3.97;;;;;;;-145.33;100.00;60416.63;4969830;28;20023;-23
2023/08/17 08:03:56;;;;;;;10.05;4.22;;;;;;;-145.33;100.00;60416.63;4969492;28;20593;-24
2023/08/17 08:06:24;;;;;;;6.18;3.40;;;;;;;-145.33;100.00;60416.63;4969582;28;20379;-23
2023/08/17 08:08:50;;;;;;;6.40;3.15;;;;;;;-145.33;100.00;60416.63;4969371;28;20799;-24
2023/08/17 08:11:15;;;;;;;7.63;3.30;;;;;;;-145.33;100.00;60416.63;4969527;28;20027;-23
2023/08/17 08:13:41;;;;;;;5.50;3.00;;;;;;;-145.33;100.00;60416.63;4969174;28;20027;-24
2023/08/17 08:16:06;;;;;;;8.32;3.63;;;;;;;-145.33;100.00;60416.63;4969382;28;20026;-24
2023/08/17 08:18:32;;;;;;;6.70;3.08;;;;;;;-145.33;100.00;60416.63;4969733;28;20034;-22
2023/08/17 08:20:57;;;;;;;5.05;3.00;;;;;;;-145.33;100.00;60416.63;4969298;28;20085;-24
2023/08/17 08:23:22;;;;;;;6.22;2.95;;;;;;;-145.33;100.00;60416.63;4969436;28;20081;-23
2023/08/17 08:25:50;;;;;;;19.08;4.07;;;;;;;-145.33;100.00;60416.63;4969065;28;20033;-23
2023/08/17 08:28:15;;;;;;;;;;;;;;;-145.33;100.00;60416.63;4969205;28;20054;-23
2023/08/17 08:30:41;;;;;;;7.60;3.10;;;;;;;-145.33;100.00;60416.63;4969505;28;19910;-24
2023/08/17 08:33:06;;;;;;;7.07;3.00;;;;;;;-145.33;100.00;60416.63;4968909;28;20069;-24
2023/08/17 08:35:34;;;;;;;5.32;2.70;;;;;;;-145.33;100.00;60416.63;4969217;28;20049;-26
2023/08/17 08:37:59;;;;;;;5.95;2.92;;;;;;;-145.33;100.00;60416.63;4969085;28;20037;-23
2023/08/17 08:40:29;;;;;;;7.72;3.40;;;;;;;-145.33;100.00;60416.63;4968919;28;20038;-23
2023/08/17 08:42:57;;;;;;;8.25;3.00;;;;;;;-145.33;100.00;60416.63;4968741;28;20041;-23
2023/08/17 08:45:27;;;;;;;8.45;3.30;;;;;;;-145.33;100.00;60416.63;4968652;28;20023;-23
2023/08/17 08:47:53;;;;;;;6.85;2.75;;;;;;;-145.33;100.00;60416.63;4968875;28;20060;-23
2023/08/17 08:50:21;;;;;;;5.78;3.35;;;;;;;-145.33;100.00;60416.63;4968757;28;20039;-24
2023/08/17 08:53:04;;;;;;;8.05;3.38;;;;;;;-145.33;100.00;60416.63;4968506;28;20054;-23
2023/08/17 08:55:41;;;;;;;7.15;3.80;;;;;;;-145.33;100.00;60416.63;4968744;28;20030;-23
2023/08/17 08:58:07;;;;;;;5.70;3.20;;;;;;;-145.33;100.00;60416.63;4968131;28;20030;-24
2023/08/17 09:00:33;;;;;;;4.88;2.78;;;;;;;-145.33;100.00;60416.63;4968818;28;20035;-24
2023/08/17 09:02:59;;;;;;;6.53;3.25;;;;;;;-145.33;100.00;60416.63;4968661;28;20053;-24
2023/08/17 09:05:27;;;;;;;9.00;3.45;;;;;;;-145.33;100.00;60416.63;4968271;28;20446;-23
2023/08/17 09:07:54;;;;;;;6.78;3.20;;;;;;;-145.33;100.00;60416.63;4967961;28;20059;-23
2023/08/17 09:10:20;;;;;;;9.15;3.03;;;;;;;-145.33;100.00;60416.63;4968202;28;20118;-23
2023/08/17 09:12:46;;;;;;;10.00;3.10;;;;;;;-145.33;100.00;60416.63;4968353;28;20109;-23
2023/08/17 09:15:12;;;;;;;4.80;2.70;;;;;;;-145.33;100.00;60416.63;4968129;28;20031;-28
2023/08/17 09:17:38;;;;;;;4.38;2.50;;;;;;;-145.33;100.00;60416.63;4968005;28;20045;-23
2023/08/17 09:20:04;;;;;;;4.35;2.60;;;;;;;-145.33;100.00;60416.63;4968350;28;20033;-26
2023/08/17 09:22:42;;;;;;;4.65;2.70;;;;;;;-145.33;100.00;60416.63;4968118;28;20035;-23
2023/08/17 09:25:23;;;;;;;4.78;2.80;;;;;;;-145.33;100.00;60416.63;4968104;28;20042;-23
2023/08/17 09:27:48;;;;;;;4.68;2.25;;;;;;;-145.33;100.00;60416.63;4968104;28;20090;-23
2023/08/17 09:30:16;;;;;;;3.55;2.05;;;;;;;-145.33;100.00;60416.63;4967971;28;20466;-24
2023/08/17 09:32:42;;;;;;;4.60;1.90;;;;;;;-145.33;100.00;60416.63;4968163;28;20050;-25
2023/08/17 09:35:07;;;;;;;6.97;2.22;;;;;;;-145.33;100.00;60416.63;4968085;28;20758;-25
2023/08/17 09:37:34;;;;;;;6.07;2.10;;;;;;;-145.33;100.00;60416.63;4967973;28;20111;-30
2023/08/17 09:40:00;;;;;;;5.80;2.08;;;;;;;-145.33;100.00;60416.63;4968140;28;20085;-23
2023/08/17 09:42:27;;;;;;;4.50;2.08;;;;;;;-145.33;100.00;60416.63;4967691;28;20038;-23
2023/08/17 09:44:53;;;;;;;3.80;1.88;;;;;;;-145.33;100.00;60416.63;4967786;28;20134;-23
2023/08/17 09:47:22;;;;;;;4.67;1.97;;;;;;;-145.33;100.00;60416.63;4967583;28;20522;-24
2023/08/17 09:49:51;;;;;;;4.50;2.13;;;;;;;-145.33;100.00;60416.63;4968054;28;20110;-23
2023/08/17 09:52:18;;;;;;;5.80;1.90;;;;;;;-145.33;100.00;60416.63;4967267;28;20769;-23
2023/08/17 09:54:46;;;;;;;4.25;2.15;;;;;;;-145.33;100.00;60416.63;4967588;28;20494;-24
2023/08/17 09:57:12;;;;;;;5.35;2.00;;;;;;;-145.33;100.00;60416.63;4965749;28;20474;-23
2023/08/17 09:59:38;;;;;;;4.27;2.20;;;;;;;-145.33;100.00;60416.63;4967361;28;20545;-24
2023/08/17 10:02:08;;;;;;;4.97;2.30;;;;;;;-145.33;100.00;60416.63;4967399;28;20030;-29
2023/08/17 10:04:35;;;;;;;3.78;1.85;;;;;;;-145.33;100.00;60416.63;4967658;28;20046;-30
2023/08/17 10:07:03;;;;;;;3.17;1.95;;;;;;;-145.33;100.00;60416.63;4967357;28;20038;-26
2023/08/17 10:09:36;;;;;;;5.70;2.20;;;;;;;-145.33;100.00;60416.63;4967724;28;20045;-23
2023/08/17 10:12:11;;;;;;;12.50;2.58;;;;;;;-145.33;100.00;60416.63;4967411;28;20128;-23
2023/08/17 10:14:46;;;;;;;5.85;2.28;;;;;;;-145.33;100.00;60416.63;4967120;28;20070;-24
2023/08/17 10:17:15;;;;;;;6.80;2.30;;;;;;;-145.33;100.00;60416.63;4967256;28;20042;-23
2023/08/17 10:19:51;;;;;;;4.07;2.28;;;;;;;-145.33;100.00;60416.63;4967118;28;20080;-23
2023/08/17 10:23:03;;;;;;;4.95;2.58;;;;;;;-145.33;100.00;60416.63;4967114;28;20027;-23
2023/08/17 10:25:29;;;;;;;6.07;2.40;;;;;;;-145.33;100.00;60416.63;4954129;28;20034;-24
2023/08/17 10:27:55;;;;;;;7.07;2.78;;;;;;;-145.33;100.00;60416.63;4967302;28;20035;-22
2023/08/17 10:30:20;;;;;;;5.05;2.40;;;;;;;-145.33;100.00;60416.63;4965658;28;20031;-24
2023/08/17 10:32:46;;;;;;;4.40;2.50;;;;;;;-145.33;100.00;60416.63;4967002;28;20537;-23
2023/08/17 10:35:13;;;;;;;3.85;2.20;;;;;;;-145.33;100.00;60416.63;4967008;28;20407;-23
2023/08/17 10:37:39;;;;;;;;;;;;;;;-145.33;100.00;60416.63;4967200;28;20113;-24
2023/08/17 10:40:06;;;;;;;8.50;2.10;;;;;;;-145.33;100.00;60416.63;4967069;28;20036;-29
2023/08/17 10:42:32;;;;;;;7.25;2.20;;;;;;;-145.33;100.00;60416.63;4967178;28;20030;-23
2023/08/17 10:44:58;;;;;;;7.93;2.45;;;;;;;-145.33;100.00;60416.63;4966880;28;20062;-24
2023/08/17 10:47:30;;;;;;;6.97;2.33;;;;;;;-145.33;100.00;60416.63;4965584;28;20061;-24
2023/08/17 10:50:04;;;;;;;4.53;2.30;;;;;;;-145.33;100.00;60416.63;4965823;28;20030;-25
2023/08/17 10:52:37;;;;;;;8.20;3.05;;;;;;;-145.33;100.00;60416.63;4965574;28;20035;-23
2023/08/17 10:55:08;;;;;;;4.60;2.45;;;;;;;-145.33;100.00;60416.63;4966929;28;20027;-24
2023/08/17 10:57:38;;;;;;;5.85;2.58;;;;;;;-145.33;100.00;60416.63;4966736;28;20490;-24
2023/08/17 11:00:13;;;;;;;9.77;2.63;;;;;;;-145.33;100.00;60416.63;4966785;28;20030;-23
2023/08/17 11:02:39;;;;;;;6.68;2.83;;;;;;;-145.33;100.00;60416.63;4965018;28;20035;-24
2023/08/17 11:05:09;;;;;;;3.90;2.33;;;;;;;-145.33;100.00;60416.63;4966429;28;20030;-29